Time;durP1;ratioP1;P1;durP2;ratioP2;P2;SDS_P1;SDS_P2;PMS_P1;PMS_P2;Temp;Humidity;BMP_temperature;BMP_pressure;BME280_temperature;BME280_humidity;BME280_pressure;Samples;Min_cycle;Max_cycle;Signal;HPM_P1;HPM_P2
2021/04/06 00:01:47;;;;;;;3.88;1.77;;;-0.30;99.90;;;;;;4777110;30;20078;-78
2021/04/06 00:04:32;;;;;;;5.10;1.95;;;-0.30;99.90;;;;;;4763201;30;20062;-78
2021/04/06 00:07:06;;;;;;;6.47;2.40;;;-0.30;99.90;;;;;;4777444;30;20047;-78
2021/04/06 00:09:40;;;;;;;3.13;2.05;;;-0.30;99.90;;;;;;4777823;30;20138;-78
2021/04/06 00:12:08;;;;;;;5.15;1.98;;;-0.30;99.90;;;;;;4777720;30;20078;-78
2021/04/06 00:14:37;;;;;;;2.60;1.92;;;-0.30;99.90;;;;;;4763045;30;20474;-79
2021/04/06 00:17:07;;;;;;;3.20;1.95;;;-0.30;99.90;;;;;;4777558;30;20055;-78
2021/04/06 00:19:43;;;;;;;3.63;1.60;;;-0.30;99.90;;;;;;4763406;30;20142;-78
2021/04/06 00:22:13;;;;;;;4.78;1.77;;;-0.30;99.90;;;;;;4777519;30;20085;-78
2021/04/06 00:24:48;;;;;;;3.65;1.80;;;-0.30;99.90;;;;;;4763153;30;20044;-78
2021/04/06 00:27:30;;;;;;;4.65;2.30;;;-0.30;99.90;;;;;;4762675;30;20048;-78
2021/04/06 00:30:33;;;;;;;2.90;1.83;;;-0.30;99.90;;;;;;4777180;29;20051;-78
2021/04/06 00:33:06;;;;;;;3.80;1.90;;;-0.30;99.90;;;;;;4777300;29;20046;-78
2021/04/06 00:35:36;;;;;;;5.55;2.47;;;-0.30;99.90;;;;;;4762931;30;20063;-78
2021/04/06 00:38:12;;;;;;;8.40;2.47;;;-0.40;99.90;;;;;;4777734;30;20055;-78
2021/04/06 00:40:46;;;;;;;2.78;1.80;;;-0.40;99.90;;;;;;4777502;29;20451;-78
2021/04/06 00:43:12;;;;;;;;;;;-0.50;99.90;;;;;;4778135;30;20054;-78
2021/04/06 00:45:46;;;;;;;6.25;2.05;;;-0.60;99.90;;;;;;4794052;30;20409;-78
2021/04/06 00:48:18;;;;;;;;;;;-0.60;99.90;;;;;;4763923;30;20047;-79
2021/04/06 00:51:13;;;;;;;3.15;2.10;;;-0.60;99.90;;;;;;4778084;29;19930;-78
2021/04/06 00:53:52;;;;;;;7.07;2.42;;;-0.60;99.90;;;;;;4777926;30;20082;-78
2021/04/06 00:56:29;;;;;;;4.93;2.20;;;-0.70;99.90;;;;;;4777019;30;20146;-78
2021/04/06 00:59:08;;;;;;;3.78;2.13;;;-0.60;99.90;;;;;;4762219;30;20059;-78
2021/04/06 01:01:43;;;;;;;;;;;-0.60;99.90;;;;;;4763376;30;20054;-78
2021/04/06 01:04:18;;;;;;;6.00;2.05;;;-0.60;99.90;;;;;;4776873;30;19929;-78
2021/04/06 01:07:03;;;;;;;3.38;2.17;;;-0.60;99.90;;;;;;4762435;30;20067;-78
2021/04/06 01:09:43;;;;;;;8.57;2.15;;;-0.60;99.90;;;;;;4762816;30;20078;-78
2021/04/06 01:15:07;;;;;;;3.53;1.83;;;-0.50;99.90;;;;;;5301897;24;20075;-79
2021/04/06 01:17:36;;;;;;;6.63;2.10;;;-0.50;99.90;;;;;;4769476;30;20051;-78
2021/04/06 01:20:13;;;;;;;3.47;2.20;;;-0.50;99.90;;;;;;4775636;30;20053;-78
2021/04/06 01:25:25;;;;;;;5.03;1.90;;;-0.60;99.90;;;;;;4796592;29;20097;-78
2021/04/06 01:28:04;;;;;;;4.72;2.40;;;-0.50;99.90;;;;;;4794563;29;20496;-78
2021/04/06 01:30:46;;;;;;;4.65;2.20;;;-0.50;99.90;;;;;;4808604;29;20055;-78
2021/04/06 01:33:21;;;;;;;5.53;2.17;;;-0.60;99.90;;;;;;4809338;29;20522;-79
2021/04/06 01:35:56;;;;;;;5.63;2.72;;;-0.60;99.90;;;;;;4809396;29;20046;-78
2021/04/06 01:38:27;;;;;;;5.72;2.50;;;-0.50;99.90;;;;;;4794324;29;20515;-78
2021/04/06 01:44:09;;;;;;;9.98;3.33;;;-0.60;99.90;;;;;;5385349;24;20061;-78
2021/04/06 01:46:45;;;;;;;8.70;3.05;;;-0.70;99.90;;;;;;4793948;29;20065;-78
2021/04/06 01:49:18;;;;;;;6.03;2.95;;;-0.90;99.90;;;;;;4779752;29;20054;-78
2021/04/06 02:03:58;;;;;;;3.35;2.20;;;-1.00;99.90;;;;;;4583501;24;20025;-76
2021/04/06 02:06:27;;;;;;;5.35;2.20;;;-1.10;99.90;;;;;;4789854;30;20047;-79
2021/04/06 02:09:00;;;;;;;5.10;2.78;;;-1.10;99.90;;;;;;4777097;30;20050;-78
2021/04/06 02:11:30;;;;;;;4.10;2.35;;;-1.20;99.90;;;;;;4754265;30;20056;-78
2021/04/06 02:14:15;;;;;;;6.95;3.10;;;-1.20;99.90;;;;;;4758376;30;20051;-78
2021/04/06 02:17:05;;;;;;;4.38;2.00;;;-1.30;99.90;;;;;;4773306;30;20047;-79
2021/04/06 02:19:38;;;;;;;6.85;2.50;;;-1.40;99.90;;;;;;4772992;30;20521;-78
2021/04/06 02:22:12;;;;;;;6.45;2.45;;;-1.40;99.90;;;;;;4758876;30;20130;-78
2021/04/06 02:24:41;;;;;;;5.13;2.45;;;-1.40;99.90;;;;;;4773048;30;20051;-78
2021/04/06 02:27:17;;;;;;;3.83;2.38;;;-1.40;99.90;;;;;;4758252;30;20044;-79
2021/04/06 02:29:55;;;;;;;4.97;2.58;;;-1.40;99.90;;;;;;4758696;30;20051;-77
2021/04/06 02:32:29;;;;;;;7.70;2.95;;;-1.40;99.90;;;;;;4758701;30;20052;-78
2021/04/06 02:34:59;;;;;;;4.20;2.33;;;-1.40;99.90;;;;;;4773098;30;20060;-79
2021/04/06 02:37:31;;;;;;;8.75;3.00;;;-1.40;99.90;;;;;;4773196;30;20150;-78
2021/04/06 02:40:08;;;;;;;5.40;2.65;;;-1.60;99.90;;;;;;4758688;30;20058;-80
2021/04/06 02:42:41;;;;;;;6.18;3.33;;;-1.60;99.90;;;;;;4831165;24;20063;-78
2021/04/06 02:45:26;;;;;;;4.85;3.25;;;-1.50;99.90;;;;;;4793875;29;20055;-78
2021/04/06 02:48:06;;;;;;;7.05;3.75;;;-1.60;99.90;;;;;;4793893;29;20057;-78
2021/04/06 02:50:35;;;;;;;7.82;2.83;;;-1.60;99.90;;;;;;4778357;29;20050;-79
2021/04/06 02:53:08;;;;;;;;;;;-1.60;99.90;;;;;;4776616;29;20051;-79
2021/04/06 02:55:39;;;;;;;6.18;2.92;;;-1.60;99.90;;;;;;4780661;30;19925;-78
2021/04/06 02:58:16;;;;;;;4.93;3.35;;;-1.60;99.90;;;;;;4779990;30;20054;-79
2021/04/06 03:00:47;;;;;;;4.95;2.97;;;-1.60;99.90;;;;;;4779950;29;20047;-79
2021/04/06 03:03:25;;;;;;;5.20;3.10;;;-1.60;99.90;;;;;;4779414;30;20055;-78
2021/04/06 03:06:04;;;;;;;6.05;3.22;;;-1.60;99.90;;;;;;4794504;29;20094;-78
2021/04/06 03:08:37;;;;;;;4.68;3.05;;;-1.70;99.90;;;;;;4794272;29;20051;-78
2021/04/06 03:14:00;;;;;;;4.88;3.03;;;-1.70;99.90;;;;;;4807746;29;20062;-79
2021/04/06 03:16:27;;;;;;;5.53;2.97;;;-1.80;99.90;;;;;;4815318;29;20453;-78
2021/04/06 03:19:02;;;;;;;6.88;3.25;;;-1.90;99.90;;;;;;4800384;29;20058;-78
2021/04/06 03:21:35;;;;;;;6.38;3.15;;;-1.90;99.90;;;;;;4800812;29;20057;-78
2021/04/06 03:24:08;;;;;;;6.38;2.95;;;-2.00;99.90;;;;;;4815238;29;20061;-78
2021/04/06 03:26:35;;;;;;;5.10;3.10;;;-2.10;99.90;;;;;;4800803;29;20123;-78
2021/04/06 03:29:08;;;;;;;5.55;2.92;;;-2.10;99.90;;;;;;4802074;29;20062;-79
2021/04/06 03:31:40;;;;;;;4.43;1.90;;;-2.10;99.90;;;;;;4801397;29;20051;-78
2021/04/06 03:34:09;;;;;;;4.25;2.65;;;-2.10;99.90;;;;;;4800984;29;20061;-78
2021/04/06 03:36:41;;;;;;;4.45;2.65;;;-2.10;99.90;;;;;;4815129;29;20054;-78
2021/04/06 03:39:09;;;;;;;6.95;2.08;;;-2.20;99.90;;;;;;4815724;29;20043;-78
2021/04/06 03:44:38;;;;;;;5.07;2.30;;;-2.30;99.90;;;;;;5323626;24;20057;-79
2021/04/06 03:47:05;;;;;;;5.68;2.70;;;-2.30;99.90;;;;;;4783769;29;20074;-78
2021/04/06 03:49:49;;;;;;;6.63;2.90;;;-2.30;99.90;;;;;;4783287;29;20053;-78
2021/04/06 04:12:54;;;;;;;3.78;2.40;;;-2.50;99.90;;;;;;5587246;24;20137;-76
2021/04/06 04:15:25;;;;;;;5.68;3.10;;;-2.50;99.90;;;;;;4804692;29;20074;-77
2021/04/06 04:17:56;;;;;;;5.35;2.95;;;-2.50;99.90;;;;;;4774300;29;21085;-77
2021/04/06 04:20:28;;;;;;;3.05;2.30;;;-2.60;99.90;;;;;;4769559;29;20044;-77
2021/04/06 04:22:59;;;;;;;3.83;2.78;;;-2.60;99.90;;;;;;4777407;30;20047;-77
2021/04/06 04:25:30;;;;;;;4.50;2.78;;;-2.60;99.90;;;;;;4770584;30;20050;-77
2021/04/06 04:28:02;;;;;;;6.15;2.47;;;-2.50;99.90;;;;;;4771012;29;20462;-77
2021/04/06 04:30:38;;;;;;;4.60;3.30;;;-2.50;99.90;;;;;;4781544;29;20093;-77
2021/04/06 04:33:10;;;;;;;5.70;2.90;;;-2.60;99.90;;;;;;4756427;30;20535;-77
2021/04/06 04:35:41;;;;;;;5.13;2.97;;;-2.60;99.90;;;;;;4787661;29;20042;-77
2021/04/06 04:38:12;;;;;;;3.55;2.45;;;-2.60;99.90;;;;;;4778983;29;20038;-78
2021/04/06 04:40:44;;;;;;;5.22;3.47;;;-2.60;99.90;;;;;;4782679;29;20050;-77
2021/04/06 04:43:11;;;;;;;2.95;2.63;;;-2.60;99.90;;;;;;4773958;29;20681;-77
2021/04/06 04:45:42;;;;;;;8.20;4.00;;;-2.60;99.90;;;;;;4797350;29;20472;-77
2021/04/06 04:48:13;;;;;;;4.88;3.03;;;-2.60;99.90;;;;;;4804215;29;20046;-78
2021/04/06 04:50:45;;;;;;;4.80;2.60;;;-2.60;99.90;;;;;;4781163;29;20510;-78
2021/04/06 04:53:11;;;;;;;7.35;3.25;;;-2.60;99.90;;;;;;4789778;29;20511;-77
2021/04/06 04:55:42;;;;;;;6.22;3.33;;;-2.60;99.90;;;;;;4776609;29;20415;-77
2021/04/06 04:58:10;;;;;;;6.35;3.70;;;-2.70;99.90;;;;;;4805128;29;20046;-76
2021/04/06 05:00:41;;;;;;;7.80;3.20;;;-2.70;99.90;;;;;;4789013;29;20150;-77
2021/04/06 05:03:07;;;;;;;13.18;3.15;;;-2.70;99.90;;;;;;4796568;29;20055;-77
2021/04/06 05:05:39;;;;;;;4.47;2.97;;;-2.70;99.90;;;;;;4806015;29;20098;-77
2021/04/06 05:08:05;;;;;;;4.88;2.92;;;-2.60;99.90;;;;;;4789315;29;20149;-78
2021/04/06 05:10:37;;;;;;;7.72;3.08;;;-2.60;99.90;;;;;;4779129;29;20051;-77
2021/04/06 05:13:08;;;;;;;4.63;3.25;;;-2.60;99.90;;;;;;4773099;29;20057;-77
2021/04/06 05:15:39;;;;;;;6.03;3.30;;;-2.60;99.90;;;;;;4787286;29;20055;-78
2021/04/06 05:18:05;;;;;;;4.55;3.17;;;-2.50;99.90;;;;;;4770904;29;20525;-77
2021/04/06 05:20:37;;;;;;;7.15;3.50;;;-2.60;99.90;;;;;;4787969;29;20050;-77
2021/04/06 05:23:08;;;;;;;5.55;3.20;;;-2.60;99.90;;;;;;4787658;29;20043;-77
2021/04/06 05:25:40;;;;;;;6.75;3.20;;;-2.60;99.90;;;;;;4772415;29;20047;-77
2021/04/06 05:28:07;;;;;;;7.10;3.70;;;-2.50;99.90;;;;;;4785827;29;20069;-77
2021/04/06 05:30:39;;;;;;;5.75;2.97;;;-2.60;99.90;;;;;;4789057;29;20047;-77
2021/04/06 05:33:10;;;;;;;5.47;3.17;;;-2.50;99.90;;;;;;4804930;29;20050;-77
2021/04/06 05:35:42;;;;;;;5.35;3.95;;;-2.50;99.90;;;;;;4790449;29;20652;-77
2021/04/06 05:38:13;;;;;;;9.48;3.90;;;-2.50;99.90;;;;;;4803989;29;20065;-77
2021/04/06 05:40:45;;;;;;;7.60;3.28;;;-2.50;99.90;;;;;;4789250;29;20069;-77
2021/04/06 05:43:18;;;;;;;6.40;3.80;;;-2.50;99.90;;;;;;4786379;29;20047;-77
2021/04/06 05:45:53;;;;;;;7.43;3.38;;;-2.40;99.90;;;;;;4776893;29;20046;-78
2021/04/06 05:48:24;;;;;;;7.38;3.42;;;-2.40;99.90;;;;;;4794710;29;20101;-78
2021/04/06 05:50:54;;;;;;;4.50;3.25;;;-2.30;99.90;;;;;;4780848;29;20082;-78
2021/04/06 05:53:26;;;;;;;5.22;3.13;;;-2.30;99.90;;;;;;4779886;29;20054;-78
2021/04/06 05:55:53;;;;;;;5.03;3.15;;;-2.30;99.90;;;;;;4779494;29;20078;-78
2021/04/06 05:58:24;;;;;;;8.10;3.67;;;-2.20;99.90;;;;;;4780468;29;20085;-80
2021/04/06 06:00:51;;;;;;;5.03;2.80;;;-2.20;99.90;;;;;;4779277;29;20108;-79
2021/04/06 06:03:17;;;;;;;7.10;3.20;;;-2.10;99.90;;;;;;4779739;29;20142;-78
2021/04/06 06:05:43;;;;;;;5.30;3.35;;;-2.10;99.90;;;;;;4777959;29;20093;-78
2021/04/06 06:08:13;;;;;;;7.57;3.78;;;-2.00;99.90;;;;;;4793607;29;20101;-77
2021/04/06 06:10:44;;;;;;;6.38;3.08;;;-1.90;99.90;;;;;;4793501;29;20125;-80
2021/04/06 06:13:20;;;;;;;4.70;2.58;;;-1.90;99.90;;;;;;4779091;29;20142;-78
2021/04/06 06:16:10;;;;;;;4.13;2.60;;;-1.90;99.90;;;;;;4781043;29;20586;-78
2021/04/06 06:18:54;;;;;;;7.20;2.63;;;-1.90;99.90;;;;;;4780945;29;20057;-78
2021/04/06 06:21:22;;;;;;;5.57;3.08;;;-1.80;99.90;;;;;;4763068;30;20058;-78
2021/04/06 06:23:48;;;;;;;5.07;2.78;;;-1.80;99.90;;;;;;4763208;30;20078;-77
2021/04/06 06:26:20;;;;;;;7.25;2.58;;;-1.80;99.90;;;;;;4778031;30;20052;-80
2021/04/06 06:29:23;;;;;;;5.18;2.47;;;-1.70;99.90;;;;;;4768010;29;20145;-78
2021/04/06 06:31:53;;;;;;;4.28;2.40;;;-1.80;99.90;;;;;;4728530;30;20064;-77
2021/04/06 06:34:38;;;;;;;8.07;2.72;;;-1.80;99.90;;;;;;4795075;29;20054;-78
2021/04/06 06:37:15;;;;;;;4.68;2.40;;;-1.70;99.90;;;;;;4787940;29;20078;-78
2021/04/06 06:39:47;;;;;;;4.63;2.38;;;-1.70;99.90;;;;;;4801207;29;20606;-78
2021/04/06 06:42:16;;;;;;;4.00;2.40;;;-1.70;99.90;;;;;;4800829;29;20062;-77
2021/04/06 06:44:42;;;;;;;7.15;2.30;;;-1.60;99.90;;;;;;4786126;29;20089;-77
2021/04/06 06:47:25;;;;;;;2.65;2.03;;;-1.60;99.90;;;;;;4787473;29;20071;-78
2021/04/06 06:50:09;;;;;;;4.70;2.25;;;-1.60;99.90;;;;;;4787604;29;20050;-79
2021/04/06 06:52:40;;;;;;;5.40;2.45;;;-1.50;99.90;;;;;;4801604;29;20638;-78
2021/04/06 06:55:20;;;;;;;8.77;3.03;;;-1.50;99.90;;;;;;4790129;29;20423;-77
2021/04/06 06:58:06;;;;;;;4.70;2.42;;;-1.50;99.90;;;;;;4803841;29;20137;-78
2021/04/06 07:00:32;;;;;;;6.00;2.72;;;-1.50;99.90;;;;;;4803447;29;20043;-79
2021/04/06 07:02:59;;;;;;;8.13;2.72;;;-1.40;99.90;;;;;;4820807;29;20042;-77
2021/04/06 07:05:30;;;;;;;5.65;2.30;;;-1.40;99.90;;;;;;4799764;29;20083;-78
2021/04/06 07:08:05;;;;;;;4.45;2.30;;;-1.40;99.90;;;;;;4789012;29;20123;-78
2021/04/06 07:10:34;;;;;;;6.97;2.50;;;-1.40;99.90;;;;;;4796548;29;20149;-77
2021/04/06 07:13:20;;;;;;;4.60;2.38;;;-1.40;99.90;;;;;;4805131;29;20058;-78
2021/04/06 07:15:49;;;;;;;5.82;2.28;;;-1.30;99.90;;;;;;4790544;29;20078;-78
2021/04/06 07:18:24;;;;;;;6.97;2.22;;;-1.30;99.90;;;;;;4797013;29;20065;-78
2021/04/06 07:20:54;;;;;;;3.63;2.20;;;-1.30;99.90;;;;;;4819448;29;20052;-77
2021/04/06 07:23:53;;;;;;;3.53;2.03;;;-1.20;99.90;;;;;;4805595;29;20050;-77
2021/04/06 07:26:21;;;;;;;5.25;2.60;;;-1.20;99.90;;;;;;4803191;29;20222;-78
2021/04/06 07:28:50;;;;;;;7.45;2.53;;;-1.20;99.90;;;;;;4801790;29;20054;-77
2021/04/06 07:31:16;;;;;;;4.80;2.53;;;-1.10;99.90;;;;;;4801914;29;20581;-79
2021/04/06 07:33:46;;;;;;;4.30;2.47;;;-1.20;99.90;;;;;;4803193;29;20535;-77
2021/04/06 07:36:17;;;;;;;7.35;2.92;;;-1.10;99.90;;;;;;4791346;29;20051;-78
2021/04/06 07:38:49;;;;;;;4.07;2.42;;;-1.00;99.90;;;;;;4797827;29;20138;-78
2021/04/06 07:41:18;;;;;;;2.58;1.95;;;-0.90;99.90;;;;;;4772963;29;20051;-79
2021/04/06 07:43:56;;;;;;;4.13;2.33;;;-0.80;99.90;;;;;;4774985;29;20134;-78
2021/04/06 07:46:33;;;;;;;6.13;2.50;;;-0.70;99.90;;;;;;4782281;29;20414;-78
2021/04/06 07:49:07;;;;;;;5.25;2.58;;;-0.60;99.90;;;;;;4791721;29;20051;-78
2021/04/06 07:51:43;;;;;;;4.97;2.40;;;-0.50;99.90;;;;;;4777381;29;20142;-77
2021/04/06 07:54:23;;;;;;;5.28;2.30;;;-0.40;99.90;;;;;;4788213;29;20046;-78
2021/04/06 07:57:05;;;;;;;5.85;2.58;;;-0.30;99.90;;;;;;4776625;29;20073;-79
2021/04/06 07:59:38;;;;;;;4.07;2.38;;;-0.30;99.90;;;;;;4805927;29;20081;-78
2021/04/06 08:02:09;;;;;;;4.75;2.40;;;-0.30;99.90;;;;;;4771323;30;20486;-78
2021/04/06 08:04:43;;;;;;;6.53;2.47;;;-0.20;99.90;;;;;;4790131;29;20058;-78
2021/04/06 08:07:21;;;;;;;8.18;2.30;;;-0.10;99.90;;;;;;4787675;29;20043;-78
2021/04/06 08:09:59;;;;;;;9.30;3.00;;;0.10;99.90;;;;;;4773302;29;20051;-79
2021/04/06 08:12:33;;;;;;;3.33;2.33;;;0.40;99.90;;;;;;4803403;29;20110;-77
2021/04/06 08:15:12;;;;;;;4.82;2.38;;;0.40;99.90;;;;;;4773486;29;20392;-77
2021/04/06 08:17:49;;;;;;;4.53;2.50;;;0.30;99.90;;;;;;4773773;29;20170;-78
2021/04/06 08:20:29;;;;;;;6.40;2.60;;;0.20;99.90;;;;;;4787703;29;20047;-77
2021/04/06 08:23:09;;;;;;;5.07;3.17;;;0.10;99.90;;;;;;4804979;29;20133;-78
2021/04/06 08:25:44;;;;;;;6.63;2.80;;;0.20;99.90;;;;;;4787443;29;20138;-78
2021/04/06 08:28:27;;;;;;;5.10;3.13;;;0.20;99.90;;;;;;4784459;29;20051;-77
2021/04/06 08:31:28;;;;;;;6.65;2.58;;;0.30;99.90;;;;;;4788402;29;20054;-77
2021/04/06 08:34:29;;;;;;;6.85;2.47;;;0.30;99.90;;;;;;4776391;29;20050;-78
2021/04/06 08:37:08;;;;;;;5.53;2.67;;;0.50;99.90;;;;;;4787908;29;20065;-77
2021/04/06 08:39:39;;;;;;;4.22;2.53;;;0.50;99.90;;;;;;4788926;29;20175;-78
2021/04/06 08:42:15;;;;;;;5.50;2.33;;;0.60;99.90;;;;;;4802328;29;20043;-77
2021/04/06 08:44:44;;;;;;;5.00;2.30;;;0.70;99.90;;;;;;4793220;29;20414;-77
2021/04/06 08:47:40;;;;;;;7.68;2.00;;;0.80;99.90;;;;;;4795020;29;20566;-77
2021/04/06 08:50:09;;;;;;;5.00;2.10;;;0.90;99.90;;;;;;4781071;29;20902;-78
2021/04/06 08:52:40;;;;;;;6.03;2.60;;;0.90;99.90;;;;;;4791007;29;20129;-78
2021/04/06 08:55:14;;;;;;;5.72;2.30;;;1.00;99.90;;;;;;4777332;29;20046;-78
2021/04/06 08:57:56;;;;;;;4.25;2.47;;;1.00;99.90;;;;;;4783476;29;20085;-78
2021/04/06 09:00:22;;;;;;;7.20;2.42;;;1.00;99.90;;;;;;4784650;29;20137;-78
2021/04/06 09:03:02;;;;;;;4.78;2.40;;;1.10;99.90;;;;;;4805772;29;20510;-77
2021/04/06 09:06:21;;;;;;;4.40;2.20;;;1.20;99.90;;;;;;4782172;30;20465;-78
2021/04/06 09:08:51;;;;;;;7.95;2.35;;;1.20;99.90;;;;;;4796426;29;20050;-77
2021/04/06 09:11:21;;;;;;;3.95;2.47;;;1.20;99.90;;;;;;4772070;29;20446;-77
2021/04/06 09:13:53;;;;;;;8.90;2.67;;;1.10;99.90;;;;;;4785779;29;20137;-77
2021/04/06 09:16:24;;;;;;;4.70;2.28;;;1.20;99.90;;;;;;4792339;29;20451;-77
2021/04/06 09:19:15;;;;;;;7.15;2.10;;;1.20;99.90;;;;;;4798042;29;20051;-77
2021/04/06 09:21:55;;;;;;;7.53;2.65;;;1.10;99.90;;;;;;4772191;29;20537;-78
2021/04/06 09:24:27;;;;;;;5.75;2.15;;;1.10;99.90;;;;;;4779493;29;20046;-78
2021/04/06 09:27:00;;;;;;;4.15;2.10;;;1.20;99.90;;;;;;4792546;29;20050;-79
2021/04/06 09:29:37;;;;;;;4.55;1.88;;;1.20;99.90;;;;;;4779407;29;20051;-78
2021/04/06 09:32:19;;;;;;;7.45;2.05;;;1.20;99.90;;;;;;4779528;29;20054;-78
2021/04/06 09:34:48;;;;;;;5.57;1.98;;;1.20;99.90;;;;;;4795582;29;20866;-79
2021/04/06 09:37:28;;;;;;;6.47;2.45;;;1.30;99.90;;;;;;4779070;29;20097;-79
2021/04/06 09:39:55;;;;;;;6.47;2.33;;;1.40;99.90;;;;;;4795604;29;20051;-79
2021/04/06 09:42:22;;;;;;;5.57;1.73;;;1.40;99.90;;;;;;4788973;29;20050;-80
2021/04/06 09:44:50;;;;;;;8.13;2.53;;;1.40;99.90;;;;;;4793165;29;20047;-78
2021/04/06 09:47:21;;;;;;;5.28;2.15;;;1.40;99.90;;;;;;4793325;29;20107;-78
2021/04/06 09:49:49;;;;;;;4.22;2.47;;;1.40;99.90;;;;;;4799307;29;20488;-79
2021/04/06 09:52:23;;;;;;;4.40;2.10;;;1.40;99.90;;;;;;4790942;29;20089;-78
2021/04/06 09:55:06;;;;;;;4.85;1.80;;;1.30;99.90;;;;;;4794787;29;20490;-81
2021/04/06 09:57:49;;;;;;;5.28;1.35;;;1.30;99.90;;;;;;4784594;29;20122;-80
2021/04/06 10:00:25;;;;;;;4.22;2.08;;;1.20;99.90;;;;;;4801052;29;20050;-79
2021/04/06 10:03:12;;;;;;;4.57;2.17;;;1.30;99.90;;;;;;4803315;29;20514;-78
2021/04/06 10:05:43;;;;;;;4.82;2.10;;;1.20;99.90;;;;;;4797534;29;20054;-78
2021/04/06 10:08:11;;;;;;;6.85;2.25;;;1.30;99.90;;;;;;4801097;29;20117;-78
2021/04/06 10:10:48;;;;;;;7.97;2.63;;;1.30;99.90;;;;;;4816101;29;20050;-78
2021/04/06 10:13:14;;;;;;;6.60;3.38;;;1.20;99.90;;;;;;4786359;29;20055;-78
2021/04/06 10:15:46;;;;;;;5.60;2.40;;;1.20;99.90;;;;;;4798473;29;20058;-78
2021/04/06 10:18:14;;;;;;;3.90;2.10;;;1.10;99.90;;;;;;4782006;29;20050;-78
2021/04/06 10:26:38;;;;;;;10.05;2.97;;;0.70;99.90;;;;;;5539224;24;20103;-78
2021/04/06 10:29:12;;;;;;;6.38;2.47;;;0.80;99.90;;;;;;4764607;30;20105;-78
2021/04/06 10:31:50;;;;;;;6.20;2.28;;;1.00;99.90;;;;;;4769377;30;20055;-78
2021/04/06 10:34:19;;;;;;;8.07;2.42;;;1.00;99.90;;;;;;4778751;30;20051;-78
2021/04/06 10:37:07;;;;;;;8.10;2.53;;;1.10;99.90;;;;;;4793425;29;20054;-78
2021/04/06 10:39:40;;;;;;;4.63;1.60;;;1.10;99.90;;;;;;4796488;29;20169;-78
2021/04/06 10:45:03;;;;;;;6.00;2.30;;;1.30;99.90;;;;;;4868670;24;20059;-79
2021/04/06 10:47:34;;;;;;;3.33;2.50;;;0.90;99.90;;;;;;4801869;29;20046;-78
2021/04/06 10:50:04;;;;;;;5.78;2.90;;;0.50;99.90;;;;;;4794426;29;20127;-78
2021/04/06 10:52:33;;;;;;;6.25;3.08;;;0.30;99.90;;;;;;4797896;29;20060;-79
2021/04/06 10:55:37;;;;;;;6.22;2.30;;;0.50;99.90;;;;;;4783503;29;20074;-78
2021/04/06 10:58:07;;;;;;;7.38;2.65;;;0.70;99.90;;;;;;4797061;29;20051;-79
2021/04/06 11:00:36;;;;;;;6.00;2.95;;;0.90;99.90;;;;;;4798279;29;20495;-78
2021/04/06 11:03:19;;;;;;;5.85;3.40;;;0.90;99.90;;;;;;4814599;29;20490;-78
2021/04/06 11:06:07;;;;;;;4.57;2.05;;;0.70;99.90;;;;;;4800203;29;20080;-78
2021/04/06 11:08:40;;;;;;;6.18;2.60;;;0.50;99.90;;;;;;4800974;29;20111;-79
2021/04/06 11:11:22;;;;;;;4.32;2.13;;;0.40;99.90;;;;;;4786747;29;20059;-79
2021/04/06 11:13:56;;;;;;;4.78;2.72;;;0.50;99.90;;;;;;4765247;30;20043;-78
2021/04/06 11:16:23;;;;;;;11.43;3.63;;;0.60;99.90;;;;;;4766809;30;20104;-79
2021/04/06 11:19:23;;;;;;;7.43;2.88;;;0.70;99.90;;;;;;4782311;30;20055;-78
2021/04/06 11:22:03;;;;;;;9.30;3.58;;;0.80;99.90;;;;;;4766364;30;20104;-79
2021/04/06 11:24:32;;;;;;;12.73;3.53;;;1.10;99.90;;;;;;4769607;30;20051;-79
2021/04/06 11:27:00;;;;;;;6.32;2.80;;;1.30;99.90;;;;;;4779675;29;20051;-79
2021/04/06 11:29:29;;;;;;;5.70;2.72;;;1.50;99.90;;;;;;4788359;29;20051;-79
2021/04/06 11:32:00;;;;;;;6.43;2.50;;;1.60;99.90;;;;;;5054992;24;20092;-78
2021/04/06 11:34:28;;;;;;;5.45;2.67;;;1.60;99.90;;;;;;4790516;29;20047;-79
2021/04/06 11:36:55;;;;;;;8.73;3.03;;;1.50;99.90;;;;;;4789628;29;20051;-78
2021/04/06 11:39:33;;;;;;;9.20;4.20;;;1.40;99.90;;;;;;4789767;29;20047;-79
2021/04/06 11:42:05;;;;;;;4.93;2.00;;;1.50;99.90;;;;;;4785352;30;20111;-80
2021/04/06 11:44:32;;;;;;;5.82;1.98;;;1.50;99.90;;;;;;4799508;30;20051;-79
2021/04/06 11:46:59;;;;;;;3.90;1.95;;;1.40;99.90;;;;;;4780283;30;20048;-75
2021/04/06 11:49:27;;;;;;;6.72;2.38;;;1.40;99.90;;;;;;4784923;30;20070;-79
2021/04/06 11:52:00;;;;;;;5.03;1.92;;;1.40;99.90;;;;;;4771626;30;20078;-79
2021/04/06 11:54:27;;;;;;;7.70;2.58;;;1.20;99.90;;;;;;4771358;30;20112;-78
2021/04/06 11:56:54;;;;;;;5.25;2.20;;;1.30;99.90;;;;;;4802207;29;20054;-78
2021/04/06 11:59:21;;;;;;;9.82;2.88;;;1.40;99.90;;;;;;4770608;30;20051;-79
2021/04/06 12:01:48;;;;;;;4.38;1.70;;;1.40;99.90;;;;;;4778171;30;20047;-79
2021/04/06 12:04:19;;;;;;;4.10;1.98;;;1.50;99.90;;;;;;4784212;29;20083;-78
2021/04/06 12:06:50;;;;;;;8.70;1.98;;;1.60;99.90;;;;;;4770126;30;20065;-79
2021/04/06 12:09:21;;;;;;;6.22;2.00;;;1.60;99.90;;;;;;4770276;30;20142;-78
2021/04/06 12:11:53;;;;;;;5.78;1.90;;;1.60;99.90;;;;;;4770732;30;20047;-78
2021/04/06 12:14:19;;;;;;;4.13;1.80;;;1.40;99.90;;;;;;4769954;30;20063;-78
2021/04/06 12:16:50;;;;;;;4.95;2.10;;;1.30;99.90;;;;;;4786098;30;20423;-78
2021/04/06 12:19:22;;;;;;;8.75;3.15;;;1.20;99.90;;;;;;4780486;29;20150;-78
2021/04/06 12:21:48;;;;;;;6.22;2.58;;;1.20;99.90;;;;;;4787923;29;20051;-78
2021/04/06 12:24:19;;;;;;;9.93;2.17;;;1.30;99.90;;;;;;4788957;29;20155;-78
2021/04/06 12:26:52;;;;;;;7.30;2.30;;;1.30;99.90;;;;;;4789111;29;20074;-78
2021/04/06 12:29:24;;;;;;;5.80;2.97;;;1.40;99.90;;;;;;4786851;29;20167;-77
2021/04/06 12:31:55;;;;;;;5.93;2.65;;;1.50;99.90;;;;;;4801751;29;20121;-78
2021/04/06 12:34:26;;;;;;;3.83;1.80;;;1.80;99.90;;;;;;4783466;30;20439;-78
2021/04/06 12:36:58;;;;;;;5.22;2.10;;;2.00;99.90;;;;;;4769325;30;20055;-78
2021/04/06 12:39:29;;;;;;;8.45;2.10;;;2.20;99.90;;;;;;4785043;29;20055;-78
2021/04/06 12:42:01;;;;;;;8.52;2.53;;;2.40;99.90;;;;;;4783880;30;20048;-78
2021/04/06 12:44:32;;;;;;;7.63;2.15;;;2.30;99.90;;;;;;4784359;30;20150;-79
2021/04/06 12:47:03;;;;;;;5.30;2.47;;;2.20;99.90;;;;;;4770291;30;20134;-78
2021/04/06 12:49:35;;;;;;;8.70;2.38;;;2.10;99.90;;;;;;4767216;30;20124;-78
2021/04/06 12:52:06;;;;;;;7.13;2.47;;;2.10;99.90;;;;;;4770900;30;20054;-78
2021/04/06 12:54:38;;;;;;;5.93;2.05;;;2.00;99.90;;;;;;4770547;29;20111;-79
2021/04/06 12:57:10;;;;;;;13.27;2.45;;;1.90;99.90;;;;;;4770637;30;20047;-78
2021/04/06 12:59:37;;;;;;;5.55;1.80;;;1.80;99.90;;;;;;4770644;30;20058;-77
2021/04/06 13:02:04;;;;;;;3.53;2.17;;;1.80;99.90;;;;;;4773329;29;20097;-78
2021/04/06 13:04:35;;;;;;;5.53;2.58;;;1.90;99.90;;;;;;4786091;29;20048;-77
2021/04/06 13:07:06;;;;;;;8.88;2.17;;;2.00;99.90;;;;;;4775048;30;20043;-76
2021/04/06 13:09:38;;;;;;;5.72;2.28;;;2.10;99.90;;;;;;4776818;29;20039;-78
2021/04/06 13:12:09;;;;;;;5.03;2.60;;;2.10;99.90;;;;;;4786482;29;20141;-77
2021/04/06 13:14:41;;;;;;;9.82;2.78;;;2.20;99.90;;;;;;4775514;30;20051;-78
2021/04/06 13:17:13;;;;;;;5.88;2.00;;;2.20;99.90;;;;;;4783332;29;20046;-77
2021/04/06 13:19:44;;;;;;;4.88;2.25;;;2.00;99.90;;;;;;4780976;30;20386;-77
2021/04/06 13:22:15;;;;;;;3.95;2.17;;;1.80;99.90;;;;;;4775253;30;20055;-77
2021/04/06 13:24:47;;;;;;;4.35;2.45;;;1.60;99.90;;;;;;4786181;29;20061;-78
2021/04/06 13:27:18;;;;;;;4.07;2.30;;;1.50;99.90;;;;;;4755482;30;20058;-78
2021/04/06 13:29:50;;;;;;;4.93;1.92;;;1.30;99.90;;;;;;4770221;30;20039;-77
2021/04/06 13:32:21;;;;;;;3.58;2.08;;;1.30;99.90;;;;;;4780874;29;20055;-77
2021/04/06 13:34:47;;;;;;;2.50;1.73;;;1.20;99.90;;;;;;4790057;29;20515;-78
2021/04/06 13:37:14;;;;;;;3.00;1.60;;;1.10;99.90;;;;;;4788262;29;20051;-77
2021/04/06 13:39:45;;;;;;;4.82;1.95;;;1.10;99.90;;;;;;4795411;29;20058;-78
2021/04/06 13:42:12;;;;;;;3.15;1.75;;;1.00;99.90;;;;;;4792303;29;20047;-79
2021/04/06 13:44:39;;;;;;;3.10;1.75;;;1.10;99.90;;;;;;4795998;29;20085;-78
2021/04/06 13:47:11;;;;;;;4.60;1.73;;;1.00;99.90;;;;;;4797114;29;20047;-78
2021/04/06 13:49:38;;;;;;;2.58;1.25;;;0.90;99.90;;;;;;4810824;29;20054;-78
2021/04/06 13:52:10;;;;;;;1.38;0.93;;;0.60;99.90;;;;;;4796851;29;20051;-78
2021/04/06 13:54:36;;;;;;;2.47;1.02;;;0.60;99.90;;;;;;4811175;29;20058;-77
2021/04/06 13:57:05;;;;;;;3.70;1.00;;;0.60;99.90;;;;;;4796724;29;20051;-78
2021/04/06 13:59:32;;;;;;;3.80;0.90;;;0.50;99.90;;;;;;4780929;30;20117;-79
2021/04/06 14:04:37;;;;;;;0.80;0.70;;;0.50;99.90;;;;;;4781324;29;20043;-78
2021/04/06 14:07:14;;;;;;;2.42;0.57;;;0.50;99.90;;;;;;4779771;29;20054;-77
2021/04/06 14:09:47;;;;;;;0.77;0.70;;;0.60;99.90;;;;;;4772381;30;20078;-78
2021/04/06 14:12:14;;;;;;;1.50;1.15;;;0.80;99.90;;;;;;4761678;30;20496;-79
2021/04/06 14:14:46;;;;;;;2.97;1.60;;;1.10;99.90;;;;;;4762663;30;20053;-79
2021/04/06 14:17:17;;;;;;;2.65;0.82;;;1.20;99.90;;;;;;4791085;30;20051;-79
2021/04/06 14:19:49;;;;;;;1.67;0.90;;;1.50;99.90;;;;;;4792130;30;20051;-79
2021/04/06 14:22:15;;;;;;;2.70;1.20;;;1.90;99.90;;;;;;4761394;30;20080;-79
2021/04/06 14:24:42;;;;;;;2.20;1.27;;;2.20;99.90;;;;;;4755742;30;20048;-79